createdAt,value
2023-03-10T00:01:32.241Z,99923.75
2023-03-10T00:04:01.512Z,99917.19
2023-03-10T00:06:34.740Z,99922.16
2023-03-10T00:09:03.436Z,99942.03
2023-03-10T00:11:31.266Z,99864.31
2023-03-10T00:13:59.017Z,99898.50
2023-03-10T00:16:29.428Z,99915.38
2023-03-10T00:18:57.559Z,99927.09
2023-03-10T00:21:28.392Z,99957.06
2023-03-10T00:23:56.926Z,99884.56
2023-03-10T00:26:28.223Z,99921.09
2023-03-10T00:28:56.567Z,99945.56
2023-03-10T00:31:26.667Z,99938.56
2023-03-10T00:33:57.070Z,99866.97
2023-03-10T00:36:29.144Z,99929.66
2023-03-10T00:39:01.315Z,99912.13
2023-03-10T00:41:31.244Z,99952.69
2023-03-10T00:44:00.029Z,99957.63
2023-03-10T00:46:30.151Z,99956.84
2023-03-10T00:48:58.866Z,99946.78
2023-03-10T00:51:26.558Z,99944.28
2023-03-10T00:53:56.124Z,99924.75
2023-03-10T00:56:25.896Z,99947.81
2023-03-10T00:58:56.496Z,99924.75
2023-03-10T01:01:35.860Z,99932.94
2023-03-10T01:04:07.286Z,99952.88
2023-03-10T01:06:35.852Z,99874.75
2023-03-10T01:09:04.906Z,99962.50
2023-03-10T01:11:34.644Z,99976.00
2023-03-10T01:14:07.245Z,99961.69
2023-03-10T01:16:35.357Z,99946.09
2023-03-10T01:19:03.263Z,99965.75
2023-03-10T01:21:33.524Z,99951.06
2023-03-10T01:24:02.114Z,99939.97
2023-03-10T01:26:30.930Z,99950.25
2023-03-10T01:28:58.970Z,99952.44
2023-03-10T01:31:26.824Z,99924.47
2023-03-10T01:33:55.277Z,99979.84
2023-03-10T01:36:26.257Z,99988.53
2023-03-10T01:38:56.171Z,99964.63
2023-03-10T01:41:24.899Z,99966.72
2023-03-10T01:43:55.189Z,99961.78
2023-03-10T01:46:36.437Z,99958.13
2023-03-10T01:49:30.712Z,99956.69
2023-03-10T01:52:12.911Z,99958.31
2023-03-10T01:55:02.156Z,99958.81
2023-03-10T01:57:33.826Z,99955.09
2023-03-10T02:00:01.809Z,99928.22
2023-03-10T02:02:35.156Z,99937.69
2023-03-10T02:05:03.146Z,99909.41
2023-03-10T02:07:36.372Z,99949.53
2023-03-10T02:10:05.718Z,99961.03
2023-03-10T02:12:33.751Z,99958.94
2023-03-10T02:15:01.669Z,99942.53
2023-03-10T02:17:29.585Z,99954.13
2023-03-10T02:20:13.807Z,99948.47
2023-03-10T02:22:42.185Z,99955.22
2023-03-10T02:25:25.685Z,99937.88
2023-03-10T02:27:54.017Z,99940.44
2023-03-10T02:30:52.709Z,99950.28
2023-03-10T02:33:25.873Z,99932.53
2023-03-10T02:36:04.042Z,99934.19
2023-03-10T02:38:31.830Z,99927.09
2023-03-10T02:40:59.888Z,99914.31
2023-03-10T02:43:33.881Z,99924.94
2023-03-10T02:46:09.956Z,99910.00
2023-03-10T02:48:42.729Z,99916.56
2023-03-10T02:51:24.761Z,99910.00
2023-03-10T02:53:54.098Z,99821.47
2023-03-10T02:56:22.569Z,99911.75
2023-03-10T02:58:51.488Z,99888.25
2023-03-10T03:01:19.930Z,99902.28
2023-03-10T03:03:47.888Z,99901.59
2023-03-10T03:06:16.017Z,99913.47
2023-03-10T03:08:45.333Z,99903.47
2023-03-10T03:11:17.360Z,99909.16
2023-03-10T03:13:45.744Z,99907.22
2023-03-10T03:16:14.855Z,99899.56
2023-03-10T03:18:44.484Z,99909.94
2023-03-10T03:21:17.958Z,99895.66
2023-03-10T03:23:47.587Z,99872.28
2023-03-10T03:26:23.698Z,99893.44
2023-03-10T03:28:54.705Z,99868.38
2023-03-10T03:31:27.108Z,99875.97
2023-03-10T03:34:05.754Z,99877.88
2023-03-10T03:36:33.664Z,99888.78
2023-03-10T03:39:02.649Z,99847.78
2023-03-10T03:41:33.428Z,99880.44
2023-03-10T03:44:01.718Z,99805.06
2023-03-10T03:46:31.330Z,99816.72
2023-03-10T03:49:00.373Z,99804.66
2023-03-10T03:51:30.439Z,99876.28
2023-03-10T03:53:59.109Z,99843.19
2023-03-10T03:56:26.928Z,99852.91
2023-03-10T03:58:54.838Z,99850.81
2023-03-10T04:01:22.752Z,99808.38
2023-03-10T04:03:56.328Z,99872.38
2023-03-10T04:06:24.439Z,99838.69
2023-03-10T04:08:53.884Z,99892.38
2023-03-10T04:11:24.166Z,99818.69
2023-03-10T04:13:53.248Z,99859.22
2023-03-10T04:16:23.441Z,99846.34
2023-03-10T04:18:51.617Z,99833.09
2023-03-10T04:21:19.501Z,99871.75
2023-03-10T04:23:49.518Z,99876.88
2023-03-10T04:26:22.113Z,99839.06
2023-03-10T04:28:51.209Z,99901.44
2023-03-10T04:31:20.864Z,99902.84
2023-03-10T04:33:51.494Z,99911.34
2023-03-10T04:36:21.166Z,99868.47
2023-03-10T04:38:52.716Z,99887.31
2023-03-10T04:41:23.462Z,99892.25
2023-03-10T04:43:52.020Z,99899.81
2023-03-10T04:46:20.792Z,99835.72
2023-03-10T04:48:48.964Z,99918.31
2023-03-10T04:51:18.286Z,99909.09
2023-03-10T04:53:51.871Z,99909.59
2023-03-10T04:56:20.841Z,99918.31
2023-03-10T04:58:48.818Z,99851.59
2023-03-10T05:01:17.205Z,99920.22
2023-03-10T05:03:51.652Z,99849.19
2023-03-10T05:06:21.699Z,99914.22
2023-03-10T05:08:58.214Z,99928.53
2023-03-10T05:11:26.141Z,99917.84
2023-03-10T05:13:54.222Z,99902.97
2023-03-10T05:16:23.108Z,99919.09
2023-03-10T05:18:53.730Z,99933.00
2023-03-10T05:21:25.893Z,99961.69
2023-03-10T05:23:56.517Z,99928.16
2023-03-10T05:26:25.691Z,99934.41
2023-03-10T05:28:53.709Z,99879.84
2023-03-10T05:31:36.330Z,99937.84
2023-03-10T05:34:10.219Z,99948.03
2023-03-10T05:36:38.269Z,99918.31
2023-03-10T05:39:13.511Z,99883.28
2023-03-10T05:41:45.738Z,99959.47
2023-03-10T05:44:13.568Z,99874.53
2023-03-10T05:46:41.863Z,99975.69
2023-03-10T05:49:10.364Z,99935.91
2023-03-10T05:51:39.700Z,99967.84
2023-03-10T05:54:07.658Z,99966.72
2023-03-10T05:56:35.627Z,99954.25
2023-03-10T05:59:04.621Z,99958.97
2023-03-10T06:01:35.296Z,99911.34
2023-03-10T06:04:03.916Z,99940.34
2023-03-10T06:06:31.921Z,99945.69
2023-03-10T06:09:00.052Z,99958.16
2023-03-10T06:11:28.045Z,99947.78
2023-03-10T06:13:56.016Z,99909.13
2023-03-10T06:16:23.695Z,99927.53
2023-03-10T06:18:57.015Z,99941.09
2023-03-10T06:21:25.533Z,99866.31
2023-03-10T06:23:53.345Z,99897.59
2023-03-10T06:26:23.209Z,99940.63
2023-03-10T06:28:51.062Z,99927.28
2023-03-10T06:31:24.720Z,99940.78
2023-03-10T06:33:53.030Z,99961.34
2023-03-10T06:36:22.587Z,99957.94
2023-03-10T06:38:50.488Z,99936.69
2023-03-10T06:41:18.558Z,99952.91
2023-03-10T06:43:46.769Z,99967.72
2023-03-10T06:46:15.635Z,99934.72
2023-03-10T06:48:44.097Z,99968.03
2023-03-10T06:51:16.644Z,99940.78
2023-03-10T06:53:44.508Z,99985.47
2023-03-10T06:56:20.599Z,99962.56
2023-03-10T06:58:49.147Z,99970.25
2023-03-10T07:01:32.179Z,99903.81
2023-03-10T07:04:01.480Z,99935.53
2023-03-10T07:06:29.435Z,99988.81
2023-03-10T07:08:57.922Z,99990.22
2023-03-10T07:11:30.244Z,99874.50
2023-03-10T07:13:58.026Z,99995.88
2023-03-10T07:16:25.867Z,99917.13
2023-03-10T07:18:53.705Z,99990.03
2023-03-10T07:21:22.018Z,99965.16
2023-03-10T07:23:50.266Z,99973.09
2023-03-10T07:26:21.717Z,99999.59
2023-03-10T07:28:49.552Z,99980.25
2023-03-10T07:31:17.692Z,100012.69
2023-03-10T07:33:45.773Z,99972.91
2023-03-10T07:36:16.659Z,99992.44
2023-03-10T07:38:44.740Z,99990.44
2023-03-10T07:41:19.374Z,100022.28
2023-03-10T07:43:47.248Z,99991.66
2023-03-10T07:46:15.854Z,99999.41
2023-03-10T07:48:44.268Z,100003.16
2023-03-10T07:51:14.913Z,100007.09
2023-03-10T07:53:43.561Z,100014.72
2023-03-10T07:56:13.119Z,100006.78
2023-03-10T07:58:41.303Z,99969.72
2023-03-10T08:01:14.201Z,99992.59
2023-03-10T08:03:42.227Z,100028.53
2023-03-10T08:06:17.100Z,100023.28
2023-03-10T08:08:44.999Z,100005.06
2023-03-10T08:11:12.820Z,100031.16
2023-03-10T08:13:40.662Z,100053.53
2023-03-10T08:16:08.984Z,100016.47
2023-03-10T08:18:37.006Z,100044.25
2023-03-10T08:21:08.148Z,100015.16
2023-03-10T08:23:37.939Z,100070.28
2023-03-10T08:26:10.034Z,100011.81
2023-03-10T08:28:39.043Z,100064.75
2023-03-10T08:31:16.170Z,100056.19
2023-03-10T08:33:45.505Z,100072.81
2023-03-10T08:36:20.579Z,100072.31
2023-03-10T08:38:49.996Z,100075.31
2023-03-10T08:41:39.197Z,100043.97
2023-03-10T08:44:07.511Z,100007.88
2023-03-10T08:46:35.577Z,100058.06
2023-03-10T08:49:03.628Z,100042.63
2023-03-10T08:51:31.311Z,100020.97
2023-03-10T08:54:00.117Z,100032.66
2023-03-10T08:56:28.271Z,99884.09
2023-03-10T08:58:59.438Z,100061.84
2023-03-10T09:01:30.061Z,100070.63
2023-03-10T09:03:59.315Z,100054.84
2023-03-10T09:06:27.439Z,100035.59
2023-03-10T09:08:55.584Z,100035.38
2023-03-10T09:11:26.715Z,100082.16
2023-03-10T09:13:55.642Z,99908.47
2023-03-10T09:16:25.749Z,100041.88
2023-03-10T09:18:55.646Z,100060.88
2023-03-10T09:21:23.943Z,100058.78
2023-03-10T09:23:53.228Z,100032.66
2023-03-10T09:26:22.290Z,100067.50
2023-03-10T09:28:51.701Z,100053.72
2023-03-10T09:31:24.839Z,100076.97
2023-03-10T09:33:52.563Z,100010.69
2023-03-10T09:36:20.506Z,100043.25
2023-03-10T09:38:48.854Z,99923.94
2023-03-10T09:41:49.052Z,100067.19
2023-03-10T09:44:39.217Z,100080.50
2023-03-10T09:47:42.372Z,100066.59
2023-03-10T09:50:37.575Z,100064.34
2023-03-10T09:53:19.811Z,100070.28
2023-03-10T09:55:49.011Z,99962.41
2023-03-10T09:58:34.030Z,100094.03
2023-03-10T10:01:03.545Z,100072.47
2023-03-10T10:03:52.267Z,100080.88
2023-03-10T10:06:32.818Z,100075.25
2023-03-10T10:09:12.540Z,100092.78
2023-03-10T10:11:40.468Z,100096.50
2023-03-10T10:14:31.961Z,100089.66
2023-03-10T10:17:21.096Z,100076.50
2023-03-10T10:19:50.003Z,100049.22
2023-03-10T10:22:34.662Z,100059.09
2023-03-10T10:25:08.675Z,100080.75
2023-03-10T10:27:42.356Z,100007.97
2023-03-10T10:30:28.628Z,100073.53
2023-03-10T10:32:59.819Z,100069.84
2023-03-10T10:35:31.014Z,100074.44
2023-03-10T10:38:09.729Z,100091.38
2023-03-10T10:41:07.496Z,100081.47
2023-03-10T10:43:44.620Z,100071.81
2023-03-10T10:46:18.252Z,100085.72
2023-03-10T10:48:48.647Z,100089.44
2023-03-10T10:51:19.619Z,100089.63
2023-03-10T10:53:48.495Z,100028.50
2023-03-10T10:56:20.873Z,100106.66
2023-03-10T10:59:28.119Z,100097.38
2023-03-10T11:01:59.018Z,100096.25
2023-03-10T11:04:41.695Z,99990.13
2023-03-10T11:07:38.948Z,100100.25
2023-03-10T11:10:14.640Z,100099.94
2023-03-10T11:13:05.724Z,100105.28
2023-03-10T11:15:38.135Z,100108.81
2023-03-10T11:18:20.756Z,100094.81
2023-03-10T11:21:23.758Z,100095.38
2023-03-10T11:24:26.013Z,100106.28
2023-03-10T11:27:06.938Z,100090.53
2023-03-10T11:29:48.174Z,100083.34
2023-03-10T11:32:35.723Z,99968.66
2023-03-10T11:35:19.190Z,100053.44
2023-03-10T11:37:56.194Z,100055.81
2023-03-10T11:40:27.013Z,100087.03
2023-03-10T11:43:06.235Z,100044.25
2023-03-10T11:45:46.210Z,100096.84
2023-03-10T11:48:23.095Z,100103.63
2023-03-10T11:50:55.077Z,100093.78
2023-03-10T11:53:34.993Z,100106.03
2023-03-10T11:56:07.397Z,100094.47
2023-03-10T11:59:01.219Z,100099.31
2023-03-10T12:01:38.977Z,100089.41
2023-03-10T12:04:16.897Z,100100.59
2023-03-10T12:06:44.908Z,100101.91
2023-03-10T12:09:30.414Z,100079.38
2023-03-10T12:11:59.037Z,100083.31
2023-03-10T12:14:26.871Z,100095.84
2023-03-10T12:16:56.798Z,100074.81
2023-03-10T12:19:24.558Z,100044.50
2023-03-10T12:22:31.191Z,100086.19
2023-03-10T12:24:59.158Z,100078.81
2023-03-10T12:27:27.032Z,100065.50
2023-03-10T12:29:54.912Z,100092.16
2023-03-10T12:32:42.202Z,100101.66
2023-03-10T12:35:47.766Z,100045.53
2023-03-10T12:38:30.224Z,100076.56
2023-03-10T12:41:00.574Z,100045.88
2023-03-10T12:43:37.603Z,100049.28
2023-03-10T12:46:09.944Z,100049.28
2023-03-10T12:48:43.845Z,100045.25
2023-03-10T12:51:17.440Z,100047.06
2023-03-10T12:54:02.502Z,100006.97
2023-03-10T12:56:43.441Z,100028.75
2023-03-10T12:59:19.681Z,100028.44
2023-03-10T13:01:55.908Z,99987.56
2023-03-10T13:04:27.002Z,100004.28
2023-03-10T13:07:04.015Z,100000.78
2023-03-10T13:09:43.513Z,99986.09
2023-03-10T13:12:46.265Z,100023.13
2023-03-10T13:15:26.474Z,100010.13
2023-03-10T13:17:57.112Z,99989.34
2023-03-10T13:20:28.149Z,100012.06
2023-03-10T13:22:58.994Z,100016.72
2023-03-10T13:25:27.011Z,99972.00
2023-03-10T13:27:57.652Z,99947.84
2023-03-10T13:30:28.056Z,99951.91
2023-03-10T13:32:58.704Z,99993.56
2023-03-10T13:35:32.069Z,100012.22
2023-03-10T13:38:24.814Z,100021.44
2023-03-10T13:41:04.069Z,99963.84
2023-03-10T13:43:48.694Z,100023.53
2023-03-10T13:46:29.062Z,100006.94
2023-03-10T13:49:03.994Z,99987.94
2023-03-10T13:51:35.469Z,100024.00
2023-03-10T13:54:21.846Z,100000.50
2023-03-10T13:56:57.475Z,99924.41
2023-03-10T13:59:32.097Z,100051.47
2023-03-10T14:02:02.207Z,100022.28
2023-03-10T14:04:42.232Z,100071.75
2023-03-10T14:07:19.901Z,100077.22
2023-03-10T14:10:10.440Z,100018.75
2023-03-10T14:12:48.427Z,100043.13
2023-03-10T14:15:30.746Z,100045.72
2023-03-10T14:18:07.830Z,100058.75
2023-03-10T14:20:40.150Z,99939.69
2023-03-10T14:23:20.232Z,100059.06
2023-03-10T14:25:54.214Z,99949.34
2023-03-10T14:28:28.986Z,100048.00
2023-03-10T14:31:04.881Z,99977.81
2023-03-10T14:33:34.029Z,100072.59
2023-03-10T14:36:01.757Z,100067.78
2023-03-10T14:38:29.598Z,100068.28
2023-03-10T14:40:57.328Z,100055.06
2023-03-10T14:43:27.685Z,100032.09
2023-03-10T14:45:58.868Z,100073.28
2023-03-10T14:48:30.045Z,100051.88
2023-03-10T14:50:58.052Z,100004.22
2023-03-10T14:53:27.597Z,100039.31
2023-03-10T14:55:57.355Z,100067.81
2023-03-10T14:58:46.110Z,100057.81
2023-03-10T15:01:15.053Z,100030.75
2023-03-10T15:03:43.268Z,99997.41
2023-03-10T15:06:14.965Z,100012.72
2023-03-10T15:08:42.836Z,100009.44
2023-03-10T15:11:10.946Z,100074.19
2023-03-10T15:13:39.460Z,99864.03
2023-03-10T15:16:07.899Z,100075.00
2023-03-10T15:18:35.614Z,100019.59
2023-03-10T15:21:03.816Z,100021.84
2023-03-10T15:23:31.705Z,100083.66
2023-03-10T15:25:59.682Z,100069.50
2023-03-10T15:28:28.307Z,100089.97
2023-03-10T15:30:56.598Z,100049.81
2023-03-10T15:33:24.457Z,100099.44
2023-03-10T15:35:53.483Z,100065.97
2023-03-10T15:38:21.788Z,100022.66
2023-03-10T15:40:50.012Z,100101.72
2023-03-10T15:43:18.044Z,100000.75
2023-03-10T15:45:51.275Z,100095.91
2023-03-10T15:48:19.294Z,100098.13
2023-03-10T15:50:48.017Z,99954.31
2023-03-10T15:53:16.569Z,99907.34
2023-03-10T15:55:45.196Z,100010.94
2023-03-10T15:58:13.265Z,99967.69
2023-03-10T16:00:44.099Z,99842.69
2023-03-10T16:03:12.922Z,100076.16
2023-03-10T16:05:48.097Z,100037.88
2023-03-10T16:08:16.512Z,100034.31
2023-03-10T16:10:54.653Z,100082.41
2023-03-10T16:13:23.959Z,100053.13
2023-03-10T16:15:52.898Z,99912.69
2023-03-10T16:18:20.966Z,99882.91
2023-03-10T16:21:00.022Z,100060.44
2023-03-10T16:23:30.505Z,99952.41
2023-03-10T16:26:14.920Z,100073.63
2023-03-10T16:28:49.167Z,100090.81
2023-03-10T16:31:20.094Z,100064.88
2023-03-10T16:33:53.844Z,100030.63
2023-03-10T16:36:24.790Z,99958.72
2023-03-10T16:38:53.856Z,99960.50
2023-03-10T16:41:24.318Z,100076.03
2023-03-10T16:43:54.531Z,99955.28
2023-03-10T16:46:25.946Z,100099.81
2023-03-10T16:48:56.000Z,99830.97
2023-03-10T16:51:38.778Z,100086.16
2023-03-10T16:54:09.929Z,99983.25
2023-03-10T16:56:41.919Z,100088.53
2023-03-10T16:59:14.193Z,99986.75
2023-03-10T17:01:44.411Z,100108.47
2023-03-10T17:04:12.729Z,100002.69
2023-03-10T17:06:41.586Z,100095.09
2023-03-10T17:09:10.910Z,100137.84
2023-03-10T17:11:46.837Z,100062.03
2023-03-10T17:14:17.308Z,100124.00
2023-03-10T17:16:46.418Z,100136.53
2023-03-10T17:19:19.655Z,100136.19
2023-03-10T17:21:50.043Z,100130.22
2023-03-10T17:24:20.361Z,100163.88
2023-03-10T17:26:48.382Z,100141.78
2023-03-10T17:29:16.397Z,100136.28
2023-03-10T17:31:48.933Z,100175.75
2023-03-10T17:34:16.801Z,100139.03
2023-03-10T17:36:45.272Z,100186.69
2023-03-10T17:39:19.143Z,100160.38
2023-03-10T17:41:47.259Z,100186.16
2023-03-10T17:44:16.123Z,100185.19
2023-03-10T17:46:44.120Z,100198.88
2023-03-10T17:49:13.395Z,100207.53
2023-03-10T17:51:44.909Z,100076.81
2023-03-10T17:54:16.177Z,100237.09
2023-03-10T17:56:44.142Z,100239.63
2023-03-10T17:59:14.385Z,100251.19
2023-03-10T18:01:44.236Z,100242.38
2023-03-10T18:04:12.455Z,100253.53
2023-03-10T18:06:40.302Z,100182.69
2023-03-10T18:09:12.276Z,100250.03
2023-03-10T18:11:40.530Z,100263.06
2023-03-10T18:14:08.590Z,100241.84
2023-03-10T18:16:39.948Z,100223.16
2023-03-10T18:19:10.785Z,100233.78
2023-03-10T18:21:40.226Z,100205.63
2023-03-10T18:24:08.964Z,100198.81
2023-03-10T18:26:38.215Z,100174.63
2023-03-10T18:29:09.015Z,100218.28
2023-03-10T18:31:37.599Z,100216.69
2023-03-10T18:34:06.126Z,100231.25
2023-03-10T18:36:34.188Z,100238.31
2023-03-10T18:39:07.433Z,100220.69
2023-03-10T18:41:36.256Z,100239.38
2023-03-10T18:44:05.106Z,100202.34
2023-03-10T18:46:32.998Z,100252.59
2023-03-10T18:49:01.070Z,100243.81
2023-03-10T18:51:29.253Z,100256.28
2023-03-10T18:53:57.118Z,100284.47
2023-03-10T18:56:28.859Z,100166.72
2023-03-10T18:58:56.821Z,100260.56
2023-03-10T19:01:25.821Z,100270.63
2023-03-10T19:03:53.814Z,100240.06
2023-03-10T19:06:23.083Z,100259.53
2023-03-10T19:08:53.495Z,100272.13
2023-03-10T19:11:24.787Z,100215.34
2023-03-10T19:13:52.865Z,100128.38
2023-03-10T19:16:21.662Z,100250.56
2023-03-10T19:18:49.754Z,100258.47
2023-03-10T19:21:17.850Z,100232.00
2023-03-10T19:23:45.889Z,100236.88
2023-03-10T19:26:13.736Z,100215.66
2023-03-10T19:28:41.683Z,100263.06
2023-03-10T19:31:14.922Z,100282.00
2023-03-10T19:33:43.251Z,100274.38
2023-03-10T19:36:13.356Z,100321.16
2023-03-10T19:38:43.270Z,100279.81
2023-03-10T19:41:13.792Z,100282.25
2023-03-10T19:43:42.518Z,100319.56
2023-03-10T19:46:13.311Z,100326.03
2023-03-10T19:48:42.057Z,100283.75
2023-03-10T19:51:20.386Z,100313.09
2023-03-10T19:53:51.674Z,100320.56
2023-03-10T19:56:20.234Z,100305.75
2023-03-10T19:58:50.297Z,100227.66
2023-03-10T20:01:25.380Z,100258.06
2023-03-10T20:03:59.485Z,100327.28
2023-03-10T20:06:28.604Z,100337.16
2023-03-10T20:08:58.511Z,100333.06
2023-03-10T20:11:26.395Z,100350.81
2023-03-10T20:13:54.583Z,100321.66
2023-03-10T20:16:24.417Z,100348.31
2023-03-10T20:21:20.137Z,100348.00
2023-03-10T20:23:48.738Z,100324.44
2023-03-10T20:26:17.292Z,100346.88
2023-03-10T20:28:46.034Z,100327.09
2023-03-10T20:31:22.645Z,100327.16
2023-03-10T20:33:50.443Z,100327.47
2023-03-10T20:36:18.979Z,100231.25
2023-03-10T20:38:47.633Z,100342.44
2023-03-10T20:41:17.454Z,100337.59
2023-03-10T20:43:45.516Z,100259.56
2023-03-10T20:46:13.876Z,100348.00
2023-03-10T20:48:41.910Z,100309.13
2023-03-10T20:51:09.741Z,100343.03
2023-03-10T20:53:37.728Z,100347.19
2023-03-10T20:56:11.979Z,100323.00
2023-03-10T20:58:40.054Z,100304.16
2023-03-10T21:01:15.783Z,100271.75
2023-03-10T21:06:11.171Z,100332.59
2023-03-10T21:08:39.128Z,100323.59
2023-03-10T21:11:07.096Z,100309.66
2023-03-10T21:13:34.872Z,100297.13
2023-03-10T21:16:02.784Z,100318.84
2023-03-10T21:18:30.530Z,100297.56
2023-03-10T21:20:58.330Z,100274.13
2023-03-10T21:23:26.243Z,100268.66
2023-03-10T21:25:53.892Z,100239.31
2023-03-10T21:28:21.752Z,100218.66
2023-03-10T21:30:49.528Z,100249.06
2023-03-10T21:33:17.333Z,100247.31
2023-03-10T21:35:47.756Z,100281.13
2023-03-10T21:38:15.850Z,100214.84
2023-03-10T21:40:44.708Z,100252.88
2023-03-10T21:43:13.686Z,100257.41
2023-03-10T21:45:41.437Z,100208.91
2023-03-10T21:48:11.382Z,100228.06
2023-03-10T21:50:39.219Z,100243.41
2023-03-10T21:53:07.169Z,100280.22
2023-03-10T21:55:36.414Z,100241.63
2023-03-10T21:58:05.765Z,100277.47
2023-03-10T22:00:36.208Z,100273.94
2023-03-10T22:03:04.805Z,100244.09
2023-03-10T22:05:32.528Z,100223.47
2023-03-10T22:08:00.281Z,100290.34
2023-03-10T22:10:28.138Z,100285.19
2023-03-10T22:12:55.889Z,100269.41
2023-03-10T22:15:26.279Z,100281.66
2023-03-10T22:17:55.513Z,100248.09
2023-03-10T22:20:26.354Z,100282.78
2023-03-10T22:22:54.351Z,100269.34
2023-03-10T22:25:22.195Z,100227.69
2023-03-10T22:27:55.167Z,100264.97
2023-03-10T22:30:25.472Z,100210.34
2023-03-10T22:32:54.554Z,100247.72
2023-03-10T22:35:23.185Z,100228.72
2023-03-10T22:37:51.682Z,100113.63
2023-03-10T22:40:23.098Z,100259.56
2023-03-10T22:42:54.046Z,100216.72
2023-03-10T22:45:25.898Z,100237.34
2023-03-10T22:47:56.903Z,100238.94
2023-03-10T22:50:33.279Z,100294.78
2023-03-10T22:53:04.271Z,100146.19
2023-03-10T22:55:35.741Z,100164.06
2023-03-10T22:58:06.467Z,100139.16
2023-03-10T23:00:34.934Z,100268.59
2023-03-10T23:03:04.975Z,100213.19
2023-03-10T23:05:32.853Z,100236.63
2023-03-10T23:08:00.663Z,100097.59
2023-03-10T23:10:33.959Z,100122.03
2023-03-10T23:13:04.004Z,100167.06
2023-03-10T23:15:35.300Z,100052.81
2023-03-10T23:18:04.002Z,100051.41
2023-03-10T23:20:36.058Z,100231.47
2023-03-10T23:23:05.811Z,100160.97
2023-03-10T23:25:42.846Z,100181.09
2023-03-10T23:28:11.484Z,100177.94
2023-03-10T23:30:41.185Z,100026.88
2023-03-10T23:33:14.373Z,100174.31
2023-03-10T23:35:43.713Z,100191.63
2023-03-10T23:38:12.273Z,100075.72
2023-03-10T23:40:40.398Z,100142.53
2023-03-10T23:43:08.429Z,100118.91
2023-03-10T23:45:38.736Z,100184.88
2023-03-10T23:48:12.294Z,100078.97
2023-03-10T23:50:42.725Z,100160.31
2023-03-10T23:53:12.173Z,100148.53
2023-03-10T23:55:43.474Z,100160.78
2023-03-10T23:58:12.096Z,100172.63
